createdAt,value
2023-01-15T00:01:45.364Z,5.85
2023-01-15T00:04:12.198Z,6.82
2023-01-15T00:06:40.736Z,6.72
2023-01-15T00:09:08.157Z,6.18
2023-01-15T00:11:34.980Z,6.43
2023-01-15T00:14:01.838Z,6.97
2023-01-15T00:16:28.704Z,8.13
2023-01-15T00:18:59.948Z,8.90
2023-01-15T00:21:27.568Z,8.38
2023-01-15T00:24:13.090Z,7.18
2023-01-15T00:26:58.734Z,6.43
2023-01-15T00:29:25.689Z,6.53
2023-01-15T00:31:57.741Z,7.38
2023-01-15T00:34:24.994Z,8.25
2023-01-15T00:36:52.149Z,8.73
2023-01-15T00:39:19.146Z,8.93
2023-01-15T00:41:46.013Z,11.77
2023-01-15T00:44:12.926Z,16.70
2023-01-15T00:46:39.796Z,16.88
2023-01-15T00:49:06.622Z,18.55
2023-01-15T00:51:33.498Z,21.33
2023-01-15T00:54:00.309Z,22.30
2023-01-15T00:56:27.152Z,21.00
2023-01-15T00:58:54.118Z,20.92
2023-01-15T01:01:21.212Z,21.67
2023-01-15T01:03:50.264Z,19.98
2023-01-15T01:06:17.373Z,18.73
2023-01-15T01:08:46.211Z,18.42
2023-01-15T01:11:14.459Z,18.80
2023-01-15T01:13:41.580Z,18.25
2023-01-15T01:16:38.717Z,18.38
2023-01-15T01:19:09.067Z,18.02
2023-01-15T01:21:36.784Z,18.35
2023-01-15T01:24:03.712Z,18.17
2023-01-15T01:26:30.694Z,18.92
2023-01-15T01:28:57.555Z,18.63
2023-01-15T01:31:24.556Z,21.27
2023-01-15T01:33:52.413Z,19.67
2023-01-15T01:36:20.101Z,17.95
2023-01-15T01:38:52.520Z,16.85
2023-01-15T01:41:19.723Z,17.77
2023-01-15T01:43:58.607Z,18.63
2023-01-15T01:46:26.164Z,16.37
2023-01-15T01:48:55.485Z,18.15
2023-01-15T01:51:23.558Z,17.40
2023-01-15T01:53:50.348Z,17.80
2023-01-15T01:56:17.905Z,17.40
2023-01-15T01:58:48.793Z,17.00
2023-01-15T02:01:15.936Z,16.65
2023-01-15T02:03:42.728Z,16.70
2023-01-15T02:06:10.361Z,17.30
2023-01-15T02:08:39.615Z,17.15
2023-01-15T02:11:07.777Z,17.50
2023-01-15T02:13:42.144Z,16.95
2023-01-15T02:16:14.171Z,16.67
2023-01-15T02:18:52.219Z,16.20
2023-01-15T02:21:24.551Z,15.90
2023-01-15T02:24:03.313Z,16.17
2023-01-15T02:26:57.367Z,15.80
2023-01-15T02:29:52.128Z,16.40
2023-01-15T02:32:49.909Z,16.08
2023-01-15T02:35:29.570Z,15.38
2023-01-15T02:38:11.478Z,15.43
2023-01-15T02:40:38.547Z,15.30
2023-01-15T02:43:05.915Z,20.08
2023-01-15T02:45:33.920Z,14.18
2023-01-15T02:48:14.100Z,15.18
2023-01-15T02:50:43.025Z,14.52
2023-01-15T02:53:11.323Z,14.13
2023-01-15T02:55:41.504Z,13.88
2023-01-15T02:58:10.897Z,13.35
2023-01-15T03:00:39.716Z,13.80
2023-01-15T03:03:45.765Z,12.80
2023-01-15T03:06:39.399Z,11.88
2023-01-15T03:09:06.876Z,12.13
2023-01-15T03:11:38.098Z,11.30
2023-01-15T03:14:09.950Z,11.68
2023-01-15T03:16:42.895Z,12.07
2023-01-15T03:19:39.658Z,11.43
2023-01-15T03:22:19.973Z,11.95
2023-01-15T03:24:48.112Z,11.25
2023-01-15T03:27:15.654Z,10.40
2023-01-15T03:29:44.024Z,10.80
2023-01-15T03:32:10.917Z,12.95
2023-01-15T03:34:51.104Z,9.63
2023-01-15T03:37:18.789Z,8.90
2023-01-15T03:39:45.634Z,8.90
2023-01-15T03:42:35.883Z,9.38
2023-01-15T03:45:16.042Z,8.00
2023-01-15T03:48:17.646Z,8.38
2023-01-15T03:50:57.629Z,8.25
2023-01-15T03:53:28.467Z,7.50
2023-01-15T03:56:17.522Z,7.55
2023-01-15T03:58:54.415Z,7.80
2023-01-15T04:01:25.899Z,7.10
2023-01-15T04:03:52.733Z,7.03
2023-01-15T04:06:19.564Z,7.10
2023-01-15T04:08:46.312Z,6.85
2023-01-15T04:11:13.076Z,7.60
2023-01-15T04:13:39.937Z,7.20
2023-01-15T04:16:07.126Z,6.93
2023-01-15T04:18:33.926Z,7.35
2023-01-15T04:21:00.810Z,7.10
2023-01-15T04:23:27.601Z,6.75
2023-01-15T04:25:54.389Z,6.80
2023-01-15T04:28:21.283Z,7.35
2023-01-15T04:30:48.382Z,6.60
2023-01-15T04:33:15.278Z,6.80
2023-01-15T04:35:42.167Z,6.82
2023-01-15T04:38:08.956Z,6.55
2023-01-15T04:40:54.759Z,7.20
2023-01-15T04:43:40.179Z,7.15
2023-01-15T04:46:07.104Z,6.60
2023-01-15T04:48:33.939Z,7.60
2023-01-15T04:51:04.618Z,7.03
2023-01-15T04:53:31.434Z,7.00
2023-01-15T04:56:02.373Z,6.70
2023-01-15T04:58:29.355Z,6.30
2023-01-15T05:00:56.396Z,6.68
2023-01-15T05:03:23.231Z,6.15
2023-01-15T05:05:50.837Z,6.53
2023-01-15T05:08:17.769Z,6.28
2023-01-15T05:10:44.602Z,6.10
2023-01-15T05:13:11.396Z,5.70
2023-01-15T05:15:41.036Z,7.30
2023-01-15T05:18:07.950Z,6.57
2023-01-15T05:20:37.673Z,5.95
2023-01-15T05:23:04.608Z,5.63
2023-01-15T05:25:31.367Z,5.70
2023-01-15T05:27:58.158Z,6.18
2023-01-15T05:30:25.157Z,5.80
2023-01-15T05:32:52.110Z,5.63
2023-01-15T05:35:18.858Z,5.20
2023-01-15T05:37:45.759Z,5.20
2023-01-15T05:40:12.738Z,5.28
2023-01-15T05:42:39.515Z,4.60
2023-01-15T05:45:06.910Z,4.68
2023-01-15T05:47:35.900Z,4.60
2023-01-15T05:50:02.807Z,4.50
2023-01-15T05:52:29.718Z,4.85
2023-01-15T05:54:56.519Z,4.53
2023-01-15T05:57:23.279Z,4.38
2023-01-15T05:59:50.685Z,4.35
2023-01-15T06:02:17.449Z,4.53
2023-01-15T06:04:44.199Z,6.82
2023-01-15T06:07:11.209Z,4.72
2023-01-15T06:09:38.027Z,4.60
2023-01-15T06:12:05.159Z,4.80
2023-01-15T06:14:32.116Z,4.45
2023-01-15T06:16:58.913Z,4.50
2023-01-15T06:19:25.724Z,5.13
2023-01-15T06:21:52.683Z,4.40
2023-01-15T06:24:20.229Z,4.10
2023-01-15T06:26:47.029Z,4.40
2023-01-15T06:29:17.730Z,4.00
2023-01-15T06:31:44.607Z,4.15
2023-01-15T06:34:11.405Z,4.30
2023-01-15T06:36:38.296Z,4.45
2023-01-15T06:39:05.504Z,4.10
2023-01-15T06:41:51.117Z,4.25
2023-01-15T06:44:36.773Z,4.20
2023-01-15T06:47:24.292Z,4.15
2023-01-15T06:49:56.019Z,4.07
2023-01-15T06:52:23.995Z,4.25
2023-01-15T06:54:50.986Z,4.10
2023-01-15T06:57:19.109Z,4.60
2023-01-15T06:59:46.454Z,4.40
2023-01-15T07:02:13.309Z,4.63
2023-01-15T07:04:40.071Z,5.20
2023-01-15T07:07:06.972Z,6.30
2023-01-15T07:09:33.809Z,6.07
2023-01-15T07:12:00.586Z,9.30
2023-01-15T07:14:31.421Z,6.70
2023-01-15T07:16:59.426Z,7.30
2023-01-15T07:19:26.618Z,6.95
2023-01-15T07:21:53.555Z,6.95
2023-01-15T07:24:20.339Z,6.93
2023-01-15T07:26:47.227Z,7.50
2023-01-15T07:29:14.366Z,7.45
2023-01-15T07:31:41.563Z,7.20
2023-01-15T07:34:08.367Z,6.95
2023-01-15T07:36:35.220Z,7.07
2023-01-15T07:39:04.621Z,7.15
2023-01-15T07:41:49.963Z,7.10
2023-01-15T07:44:35.365Z,7.50
2023-01-15T07:47:21.156Z,6.43
2023-01-15T07:49:51.229Z,5.75
2023-01-15T07:52:19.700Z,5.80
2023-01-15T07:54:47.018Z,5.47
2023-01-15T07:57:15.052Z,5.18
2023-01-15T07:59:41.863Z,5.05
2023-01-15T08:02:08.892Z,5.65
2023-01-15T08:04:35.834Z,5.30
2023-01-15T08:07:03.222Z,5.70
2023-01-15T08:09:30.406Z,5.40
2023-01-15T08:12:17.741Z,5.90
2023-01-15T08:15:03.299Z,7.45
2023-01-15T08:17:30.318Z,5.20
2023-01-15T08:19:57.100Z,6.03
2023-01-15T08:22:24.024Z,5.30
2023-01-15T08:24:50.858Z,5.60
2023-01-15T08:27:17.695Z,5.38
2023-01-15T08:29:44.566Z,5.20
2023-01-15T08:32:11.319Z,5.05
2023-01-15T08:34:38.223Z,8.95
2023-01-15T08:37:05.126Z,4.95
2023-01-15T08:39:31.972Z,7.30
2023-01-15T08:41:58.774Z,5.97
2023-01-15T08:44:25.793Z,4.30
2023-01-15T08:46:52.741Z,4.43
2023-01-15T08:49:20.236Z,4.53
2023-01-15T08:51:52.063Z,4.30
2023-01-15T08:54:20.018Z,4.47
2023-01-15T08:56:46.959Z,8.48
2023-01-15T08:59:14.196Z,4.85
2023-01-15T09:01:41.203Z,6.15
2023-01-15T09:04:08.125Z,4.50
2023-01-15T09:06:35.055Z,4.38
2023-01-15T09:09:01.930Z,4.22
2023-01-15T09:11:28.928Z,3.65
2023-01-15T09:13:55.846Z,4.72
2023-01-15T09:16:22.797Z,4.80
2023-01-15T09:18:49.586Z,5.00
2023-01-15T09:21:16.583Z,5.63
2023-01-15T09:23:43.351Z,5.65
2023-01-15T09:26:25.534Z,6.53
2023-01-15T09:28:52.803Z,6.55
2023-01-15T09:31:19.566Z,7.07
2023-01-15T09:33:46.451Z,7.78
2023-01-15T09:36:30.558Z,7.70
2023-01-15T09:38:58.137Z,7.72
2023-01-15T09:41:44.928Z,9.10
2023-01-15T09:44:23.895Z,8.75
2023-01-15T09:46:58.647Z,9.85
2023-01-15T09:49:38.084Z,9.82
2023-01-15T09:55:08.186Z,9.60
2023-01-15T09:57:35.131Z,10.02
2023-01-15T10:00:02.603Z,9.13
2023-01-15T10:02:43.282Z,8.60
2023-01-15T10:05:37.899Z,10.25
2023-01-15T10:08:13.232Z,9.05
2023-01-15T10:10:45.062Z,8.18
2023-01-15T10:13:33.140Z,8.13
2023-01-15T10:16:00.120Z,10.27
2023-01-15T10:18:27.370Z,9.38
2023-01-15T10:21:12.772Z,9.40
2023-01-15T10:23:51.254Z,10.90
2023-01-15T10:26:30.676Z,12.63
2023-01-15T10:29:10.790Z,10.02
2023-01-15T10:31:53.707Z,9.93
2023-01-15T10:34:33.769Z,11.60
2023-01-15T10:37:09.678Z,10.48
2023-01-15T10:40:01.104Z,9.77
2023-01-15T10:42:33.032Z,9.85
2023-01-15T10:45:18.023Z,9.85
2023-01-15T10:47:45.711Z,10.32
2023-01-15T10:50:24.390Z,9.43
2023-01-15T10:53:09.398Z,10.55
2023-01-15T10:55:47.694Z,10.25
2023-01-15T10:58:23.074Z,10.60
2023-01-15T11:00:52.639Z,9.93
2023-01-15T11:03:38.518Z,13.15
2023-01-15T11:06:08.367Z,10.25
2023-01-15T11:11:59.171Z,10.10
2023-01-15T11:15:00.812Z,11.35
2023-01-15T11:17:57.907Z,10.48
2023-01-15T11:20:37.323Z,10.23
2023-01-15T11:23:08.843Z,10.07
2023-01-15T11:25:35.749Z,10.10
2023-01-15T11:28:06.495Z,10.40
2023-01-15T11:30:37.657Z,13.05
2023-01-15T11:33:06.575Z,13.25
2023-01-15T11:35:33.944Z,11.98
2023-01-15T11:38:14.144Z,11.05
2023-01-15T11:40:53.419Z,10.23
2023-01-15T11:43:40.637Z,9.82
2023-01-15T11:46:46.808Z,10.95
2023-01-15T11:49:38.057Z,10.82
2023-01-15T11:52:17.921Z,10.10
2023-01-15T11:54:47.490Z,10.45
2023-01-15T11:57:26.863Z,13.45
2023-01-15T11:59:53.776Z,10.30
2023-01-15T12:02:28.391Z,9.48
2023-01-15T12:04:56.770Z,10.63
2023-01-15T12:07:24.615Z,10.20
2023-01-15T12:10:15.661Z,10.75
2023-01-15T12:12:54.849Z,12.55
2023-01-15T12:15:36.900Z,9.82
2023-01-15T12:18:11.731Z,9.90
2023-01-15T12:20:50.642Z,10.35
2023-01-15T12:23:32.473Z,9.55
2023-01-15T12:26:17.991Z,10.00
2023-01-15T12:29:00.869Z,9.50
2023-01-15T12:31:43.730Z,12.82
2023-01-15T12:34:23.227Z,12.75
2023-01-15T12:36:59.629Z,10.52
2023-01-15T12:39:36.982Z,10.20
2023-01-15T12:42:24.774Z,9.13
2023-01-15T12:45:04.372Z,11.05
2023-01-15T12:47:49.463Z,10.65
2023-01-15T12:50:38.137Z,9.90
2023-01-15T12:53:12.794Z,9.93
2023-01-15T12:55:43.181Z,11.30
2023-01-15T12:58:40.328Z,10.65
2023-01-15T13:01:18.903Z,12.90
2023-01-15T13:03:54.225Z,10.18
2023-01-15T13:06:21.210Z,9.88
2023-01-15T13:09:02.204Z,9.93
2023-01-15T13:11:29.187Z,11.15
2023-01-15T13:13:58.748Z,10.40
2023-01-15T13:16:47.244Z,10.95
2023-01-15T13:19:29.089Z,10.63
2023-01-15T13:21:57.789Z,9.85
2023-01-15T13:24:59.859Z,13.27
2023-01-15T13:28:06.612Z,10.82
2023-01-15T13:30:52.521Z,9.35
2023-01-15T13:33:30.356Z,9.95
2023-01-15T13:36:03.978Z,9.80
2023-01-15T13:38:31.168Z,10.63
2023-01-15T13:40:57.966Z,10.15
2023-01-15T13:43:33.165Z,9.75
2023-01-15T13:45:59.965Z,9.90
2023-01-15T13:48:33.283Z,9.30
2023-01-15T13:51:00.983Z,11.75
2023-01-15T13:53:46.641Z,9.60
2023-01-15T13:56:15.861Z,9.80
2023-01-15T13:58:56.643Z,10.40
2023-01-15T14:01:24.502Z,10.52
2023-01-15T14:04:05.236Z,9.18
2023-01-15T14:06:47.768Z,9.38
2023-01-15T14:09:27.201Z,9.20
2023-01-15T14:12:22.051Z,10.35
2023-01-15T14:15:13.303Z,13.05
2023-01-15T14:17:58.606Z,9.23
2023-01-15T14:20:44.713Z,9.38
2023-01-15T14:23:47.876Z,8.90
2023-01-15T14:26:44.570Z,10.73
2023-01-15T14:29:36.194Z,9.05
2023-01-15T14:32:24.493Z,8.52
2023-01-15T14:34:55.763Z,8.20
2023-01-15T14:37:30.230Z,9.02
2023-01-15T14:40:01.149Z,8.25
2023-01-15T14:42:53.794Z,7.90
2023-01-15T14:45:33.778Z,8.52
2023-01-15T14:48:01.889Z,9.00
2023-01-15T14:50:42.320Z,7.82
2023-01-15T14:53:13.619Z,9.18
2023-01-15T14:55:51.491Z,10.30
2023-01-15T14:58:24.530Z,8.38
2023-01-15T15:00:52.579Z,8.50
2023-01-15T15:03:22.426Z,11.60
2023-01-15T15:05:49.317Z,8.50
2023-01-15T15:08:16.851Z,8.48
2023-01-15T15:10:44.490Z,7.72
2023-01-15T15:13:28.089Z,8.23
2023-01-15T15:16:15.048Z,7.93
2023-01-15T15:18:44.647Z,7.82
2023-01-15T15:21:20.763Z,8.23
2023-01-15T15:23:53.435Z,7.55
2023-01-15T15:26:22.192Z,8.25
2023-01-15T15:28:59.812Z,7.85
2023-01-15T15:31:26.815Z,7.30
2023-01-15T15:33:56.895Z,7.30
2023-01-15T15:36:24.796Z,7.07
2023-01-15T15:39:04.026Z,10.18
2023-01-15T15:41:54.929Z,7.80
2023-01-15T15:45:01.910Z,9.30
2023-01-15T15:47:47.285Z,7.22
2023-01-15T15:50:24.750Z,7.60
2023-01-15T15:52:51.916Z,12.20
2023-01-15T15:55:19.820Z,8.13
2023-01-15T15:57:51.996Z,8.07
2023-01-15T16:00:20.496Z,8.85
2023-01-15T16:02:47.313Z,8.70
2023-01-15T16:05:29.576Z,8.80
2023-01-15T16:07:56.418Z,8.85
2023-01-15T16:10:30.726Z,9.05
2023-01-15T16:12:59.343Z,8.98
2023-01-15T16:15:31.055Z,8.70
2023-01-15T16:17:57.946Z,8.02
2023-01-15T16:20:24.915Z,8.70
2023-01-15T16:22:58.748Z,7.93
2023-01-15T16:25:26.654Z,8.07
2023-01-15T16:27:53.632Z,7.85
2023-01-15T16:30:21.183Z,9.88
2023-01-15T16:32:48.566Z,7.53
2023-01-15T16:35:17.526Z,9.35
2023-01-15T16:37:47.894Z,8.10
2023-01-15T16:40:37.530Z,8.65
2023-01-15T16:43:13.327Z,8.65
2023-01-15T16:46:03.094Z,9.23
2023-01-15T16:51:22.050Z,8.40
2023-01-15T16:53:48.964Z,9.57
2023-01-15T16:56:40.586Z,8.23
2023-01-15T16:59:45.596Z,8.20
2023-01-15T17:02:13.236Z,11.18
2023-01-15T17:04:41.570Z,8.68
2023-01-15T17:07:14.561Z,8.18
2023-01-15T17:09:49.733Z,9.07
2023-01-15T17:12:49.059Z,8.70
2023-01-15T17:15:18.629Z,8.88
2023-01-15T17:17:51.609Z,9.15
2023-01-15T17:20:19.772Z,8.70
2023-01-15T17:22:49.183Z,9.65
2023-01-15T17:25:31.231Z,9.10
2023-01-15T17:27:59.641Z,9.07
2023-01-15T17:30:33.503Z,8.90
2023-01-15T17:33:01.114Z,9.10
2023-01-15T17:35:29.966Z,11.70
2023-01-15T17:37:56.860Z,11.27
2023-01-15T17:40:23.683Z,9.63
2023-01-15T17:42:50.559Z,10.10
2023-01-15T17:45:24.060Z,8.95
2023-01-15T17:47:50.878Z,9.45
2023-01-15T17:50:17.869Z,11.52
2023-01-15T17:52:44.803Z,10.02
2023-01-15T17:55:30.989Z,10.70
2023-01-15T17:58:16.771Z,11.02
2023-01-15T18:01:02.075Z,8.82
2023-01-15T18:03:47.623Z,11.85
2023-01-15T18:06:14.761Z,9.52
2023-01-15T18:08:43.543Z,10.63
2023-01-15T18:11:10.948Z,8.13
2023-01-15T18:13:37.740Z,10.48
2023-01-15T18:16:04.648Z,9.50
2023-01-15T18:18:31.576Z,9.90
2023-01-15T18:21:00.046Z,9.60
2023-01-15T18:23:27.434Z,10.48
2023-01-15T18:25:54.401Z,11.65
2023-01-15T18:28:21.407Z,9.68
2023-01-15T18:30:48.388Z,11.10
2023-01-15T18:33:15.455Z,9.20
2023-01-15T18:35:42.212Z,10.18
2023-01-15T18:38:09.014Z,10.45
2023-01-15T18:40:36.045Z,9.73
2023-01-15T18:43:21.387Z,11.52
2023-01-15T18:46:06.854Z,8.85
2023-01-15T18:48:34.010Z,9.85
2023-01-15T18:51:09.250Z,10.80
2023-01-15T18:53:36.062Z,10.02
2023-01-15T18:56:06.125Z,10.20
2023-01-15T18:58:33.053Z,11.20
2023-01-15T19:01:06.996Z,9.65
2023-01-15T19:03:33.969Z,9.80
2023-01-15T19:06:13.097Z,9.75
2023-01-15T19:08:40.046Z,10.68
2023-01-15T19:11:15.647Z,9.82
2023-01-15T19:13:42.706Z,10.25
2023-01-15T19:16:27.831Z,10.00
2023-01-15T19:18:54.824Z,9.82
2023-01-15T19:21:21.718Z,9.38
2023-01-15T19:23:48.538Z,12.52
2023-01-15T19:26:15.450Z,10.65
2023-01-15T19:28:42.315Z,10.80
2023-01-15T19:31:28.308Z,9.07
2023-01-15T19:34:13.134Z,9.50
2023-01-15T19:36:45.252Z,8.18
2023-01-15T19:39:12.051Z,8.80
2023-01-15T19:41:57.389Z,9.20
2023-01-15T19:44:42.774Z,9.77
2023-01-15T19:47:35.203Z,8.65
2023-01-15T19:50:20.125Z,8.23
2023-01-15T19:52:51.764Z,8.05
2023-01-15T19:55:18.893Z,8.05
2023-01-15T19:57:47.350Z,9.20
2023-01-15T20:00:16.651Z,9.23
2023-01-15T20:02:44.419Z,8.75
2023-01-15T20:05:11.441Z,9.68
2023-01-15T20:07:38.498Z,11.25
2023-01-15T20:10:16.138Z,11.48
2023-01-15T20:13:01.803Z,10.52
2023-01-15T20:15:28.773Z,11.23
2023-01-15T20:17:56.411Z,12.38
2023-01-15T20:20:23.738Z,10.07
2023-01-15T20:22:50.522Z,11.35
2023-01-15T20:25:17.417Z,11.75
2023-01-15T20:27:44.504Z,11.50
2023-01-15T20:30:13.822Z,11.05
2023-01-15T20:32:42.215Z,10.57
2023-01-15T20:35:11.504Z,10.32
2023-01-15T20:37:38.409Z,9.65
2023-01-15T20:40:05.830Z,10.95
2023-01-15T20:42:51.238Z,9.23
2023-01-15T20:45:18.019Z,9.90
2023-01-15T20:48:03.396Z,9.13
2023-01-15T20:50:33.640Z,9.45
2023-01-15T20:53:00.442Z,9.05
2023-01-15T20:55:54.887Z,10.27
2023-01-15T20:58:24.079Z,10.48
2023-01-15T21:00:51.074Z,8.02
2023-01-15T21:03:18.209Z,8.25
2023-01-15T21:05:45.214Z,7.85
2023-01-15T21:08:12.552Z,9.65
2023-01-15T21:10:40.159Z,9.60
2023-01-15T21:13:06.987Z,8.77
2023-01-15T21:15:33.971Z,10.55
2023-01-15T21:20:33.511Z,8.68
2023-01-15T21:23:00.575Z,7.50
2023-01-15T21:25:27.441Z,7.93
2023-01-15T21:27:54.229Z,8.07
2023-01-15T21:30:21.281Z,9.00
2023-01-15T21:32:48.865Z,11.38
2023-01-15T21:35:15.776Z,10.13
2023-01-15T21:37:42.679Z,10.80
2023-01-15T21:40:10.314Z,9.00
2023-01-15T21:42:55.612Z,8.90
2023-01-15T21:45:22.534Z,8.45
2023-01-15T21:47:49.464Z,9.30
2023-01-15T21:50:17.927Z,10.45
2023-01-15T21:52:44.827Z,8.10
2023-01-15T21:55:13.267Z,8.07
2023-01-15T21:57:40.305Z,7.45
2023-01-15T22:00:08.112Z,7.90
2023-01-15T22:02:36.066Z,8.48
2023-01-15T22:05:03.835Z,8.00
2023-01-15T22:07:30.566Z,8.27
2023-01-15T22:09:57.441Z,15.65
2023-01-15T22:12:24.319Z,16.55
2023-01-15T22:14:51.155Z,15.60
2023-01-15T22:17:18.119Z,21.13
2023-01-15T22:19:44.967Z,16.65
2023-01-15T22:22:11.831Z,16.90
2023-01-15T22:24:40.024Z,16.92
2023-01-15T22:27:07.761Z,16.50
2023-01-15T22:29:38.423Z,17.25
2023-01-15T22:32:06.213Z,15.90
2023-01-15T22:34:33.153Z,14.88
2023-01-15T22:37:00.091Z,13.88
2023-01-15T22:39:27.164Z,13.50
2023-01-15T22:42:12.560Z,12.15
2023-01-15T22:44:39.848Z,15.45
2023-01-15T22:47:06.791Z,15.30
2023-01-15T22:49:33.587Z,16.23
2023-01-15T22:52:00.540Z,14.85
2023-01-15T22:54:27.373Z,15.73
2023-01-15T22:56:54.298Z,15.10
2023-01-15T22:59:21.179Z,14.82
2023-01-15T23:01:48.116Z,14.40
2023-01-15T23:04:25.226Z,14.30
2023-01-15T23:06:52.685Z,15.68
2023-01-15T23:09:20.340Z,13.88
2023-01-15T23:11:47.217Z,14.00
2023-01-15T23:14:16.032Z,13.60
2023-01-15T23:16:43.389Z,12.98
2023-01-15T23:19:10.432Z,11.10
2023-01-15T23:21:37.367Z,11.48
2023-01-15T23:24:04.372Z,12.02
2023-01-15T23:26:32.078Z,11.05
2023-01-15T23:28:59.033Z,11.30
2023-01-15T23:31:26.090Z,11.27
2023-01-15T23:33:52.947Z,10.45
2023-01-15T23:36:19.848Z,11.32
2023-01-15T23:38:49.345Z,9.27
2023-01-15T23:41:17.773Z,8.60
2023-01-15T23:44:03.068Z,8.20
2023-01-15T23:46:33.148Z,8.80
2023-01-15T23:49:10.283Z,8.35
2023-01-15T23:51:37.504Z,8.85
2023-01-15T23:54:04.702Z,8.55
2023-01-15T23:56:31.986Z,8.45
2023-01-15T23:58:58.966Z,8.38
